createdAt,value
2018-08-19T00:02:16.293Z,56070.68
2018-08-19T00:05:06.481Z,56042.92
2018-08-19T00:07:35.610Z,56015.16
2018-08-19T00:10:05.869Z,56049.09
2018-08-19T00:12:40.298Z,56054.23
2018-08-19T00:15:09.406Z,56067.60
2018-08-19T00:17:38.554Z,56053.20
2018-08-19T00:20:10.963Z,56042.92
2018-08-19T00:22:40.170Z,56018.24
2018-08-19T00:25:11.011Z,56047.03
2018-08-19T00:27:40.076Z,56040.86
2018-08-19T00:30:10.005Z,56036.75
2018-08-19T00:32:39.103Z,56058.34
2018-08-19T00:35:08.234Z,56056.29
2018-08-19T00:37:37.453Z,56047.03
2018-08-19T00:40:10.752Z,56050.12
2018-08-19T00:42:39.945Z,56068.62
2018-08-19T00:45:09.061Z,56052.18
2018-08-19T00:47:38.193Z,56039.84
2018-08-19T00:50:07.440Z,56060.40
2018-08-19T00:52:39.173Z,56028.52
2018-08-19T00:55:08.406Z,56079.94
2018-08-19T00:57:40.279Z,56054.23
2018-08-19T01:00:09.459Z,56050.12
2018-08-19T01:02:38.581Z,56050.12
2018-08-19T01:05:07.726Z,56082.00
2018-08-19T01:07:36.871Z,56066.57
2018-08-19T01:10:06.026Z,56028.52
2018-08-19T01:12:35.143Z,56053.20
2018-08-19T01:15:04.916Z,56073.77
2018-08-19T01:17:39.314Z,56061.43
2018-08-19T01:20:09.275Z,56064.51
2018-08-19T01:22:41.015Z,56039.84
2018-08-19T01:25:12.402Z,56048.06
2018-08-19T01:27:41.553Z,56049.09
2018-08-19T01:30:21.232Z,56072.74
2018-08-19T01:32:50.379Z,56062.46
2018-08-19T01:35:26.880Z,56040.86
2018-08-19T01:37:56.010Z,56082.00
2018-08-19T01:40:25.131Z,56038.81
2018-08-19T01:42:54.233Z,56075.82
2018-08-19T01:45:23.403Z,56084.05
2018-08-19T01:47:52.574Z,56088.16
2018-08-19T01:50:21.784Z,56063.48
2018-08-19T01:52:51.274Z,56051.14
2018-08-19T01:55:20.520Z,56028.52
2018-08-19T01:57:50.683Z,56037.78
2018-08-19T02:00:19.955Z,56084.05
2018-08-19T02:03:04.660Z,56064.51
2018-08-19T02:05:33.772Z,56087.14
2018-08-19T02:08:03.954Z,56067.60
2018-08-19T02:10:34.557Z,56057.32
2018-08-19T02:13:03.820Z,56103.59
2018-08-19T02:15:33.624Z,56065.54
2018-08-19T02:18:04.827Z,56057.32
2018-08-19T02:20:38.912Z,56051.14
2018-08-19T02:23:09.616Z,56059.37
2018-08-19T02:25:42.800Z,56066.57
2018-08-19T02:28:12.590Z,56057.32
2018-08-19T02:30:53.012Z,56048.06
2018-08-19T02:33:23.306Z,56089.19
2018-08-19T02:36:00.666Z,56064.51
2018-08-19T02:38:29.899Z,56065.54
2018-08-19T02:40:59.008Z,56062.46
2018-08-19T02:43:28.167Z,56063.48
2018-08-19T02:45:57.307Z,56061.43
2018-08-19T02:48:45.698Z,56052.18
2018-08-19T02:51:16.170Z,56038.81
2018-08-19T02:53:46.461Z,56092.28
2018-08-19T02:56:16.240Z,56069.65
2018-08-19T02:58:46.523Z,56079.94
2018-08-19T03:01:16.709Z,56041.89
2018-08-19T03:03:45.839Z,56058.34
2018-08-19T03:06:14.943Z,56055.26
2018-08-19T03:08:50.149Z,56065.54
2018-08-19T03:11:21.302Z,56063.48
2018-08-19T03:13:50.487Z,56080.96
2018-08-19T03:16:19.641Z,56073.77
2018-08-19T03:18:51.146Z,56073.77
2018-08-19T03:21:21.035Z,56092.28
2018-08-19T03:23:51.785Z,56058.34
2018-08-19T03:26:20.901Z,56082.00
2018-08-19T03:28:50.050Z,56094.33
2018-08-19T03:31:19.236Z,56065.54
2018-08-19T03:33:48.354Z,56090.22
2018-08-19T03:36:17.497Z,56055.26
2018-08-19T03:38:46.606Z,56062.46
2018-08-19T03:41:15.764Z,56033.67
2018-08-19T03:43:49.001Z,56060.40
2018-08-19T03:46:20.823Z,56051.14
2018-08-19T03:48:50.365Z,56079.94
2018-08-19T03:51:19.541Z,56055.26
2018-08-19T03:53:48.759Z,56079.94
2018-08-19T03:56:23.248Z,56087.14
2018-08-19T03:58:56.243Z,56059.37
2018-08-19T04:01:38.309Z,56098.45
2018-08-19T04:04:07.503Z,56091.25
2018-08-19T04:06:38.873Z,56084.05
2018-08-19T04:09:08.245Z,56075.82
2018-08-19T04:11:37.397Z,56049.09
2018-08-19T04:14:26.193Z,56088.16
2018-08-19T04:16:57.873Z,56071.71
2018-08-19T04:19:27.665Z,56092.28
2018-08-19T04:22:00.367Z,56079.94
2018-08-19T04:24:29.962Z,56065.54
2018-08-19T04:26:59.258Z,56077.88
2018-08-19T04:29:28.979Z,56062.46
2018-08-19T04:31:58.092Z,56056.29
2018-08-19T04:34:27.309Z,56041.89
2018-08-19T04:36:56.514Z,56069.65
2018-08-19T04:39:25.601Z,56052.18
2018-08-19T04:41:54.752Z,56058.34
2018-08-19T04:44:23.892Z,56066.57
2018-08-19T04:46:53.055Z,56068.62
2018-08-19T04:49:22.243Z,56042.92
2018-08-19T04:51:51.396Z,56043.95
2018-08-19T04:54:20.564Z,56075.82
2018-08-19T04:56:49.670Z,56064.51
2018-08-19T04:59:18.811Z,56018.24
2018-08-19T05:01:47.945Z,56063.48
2018-08-19T05:04:17.136Z,56047.03
2018-08-19T05:06:46.253Z,56036.75
2018-08-19T05:09:15.387Z,56051.14
2018-08-19T05:11:44.497Z,56023.38
2018-08-19T05:14:13.672Z,56072.74
2018-08-19T05:16:42.865Z,56041.89
2018-08-19T05:19:12.037Z,56056.29
2018-08-19T05:21:41.167Z,56048.06
2018-08-19T05:24:10.342Z,56020.30
2018-08-19T05:26:39.446Z,56038.81
2018-08-19T05:29:10.904Z,56049.09
2018-08-19T05:31:46.184Z,56038.81
2018-08-19T05:34:20.739Z,56048.06
2018-08-19T05:36:51.594Z,56044.98
2018-08-19T05:39:20.761Z,56014.13
2018-08-19T05:42:03.192Z,56049.09
2018-08-19T05:44:34.700Z,56010.02
2018-08-19T05:47:08.242Z,56012.07
2018-08-19T05:49:39.090Z,56004.87
2018-08-19T05:52:15.315Z,56024.41
2018-08-19T05:54:49.883Z,56030.58
2018-08-19T05:57:19.085Z,56010.02
2018-08-19T05:59:49.449Z,55989.45
2018-08-19T06:02:53.383Z,56015.16
2018-08-19T06:05:22.522Z,55995.62
2018-08-19T06:07:59.715Z,56005.90
2018-08-19T06:10:28.951Z,55956.55
2018-08-19T06:12:58.522Z,55991.51
2018-08-19T06:15:28.804Z,56007.96
2018-08-19T06:17:57.993Z,55999.73
2018-08-19T06:20:29.617Z,55979.17
2018-08-19T06:22:58.688Z,55983.28
2018-08-19T06:25:27.973Z,55984.31
2018-08-19T06:27:58.238Z,55979.17
2018-08-19T06:30:27.351Z,55995.62
2018-08-19T06:32:56.473Z,55960.66
2018-08-19T06:35:25.643Z,55942.16
2018-08-19T06:37:54.731Z,55935.98
2018-08-19T06:40:24.583Z,55983.28
2018-08-19T06:42:53.714Z,55984.31
2018-08-19T06:45:22.844Z,55955.52
2018-08-19T06:47:52.011Z,55980.20
2018-08-19T06:50:24.425Z,55980.20
2018-08-19T06:52:54.658Z,55974.03
2018-08-19T06:55:23.788Z,55939.07
2018-08-19T06:57:53.311Z,55968.89
2018-08-19T07:00:31.623Z,55985.34
2018-08-19T07:03:03.740Z,55968.89
2018-08-19T07:05:33.634Z,55974.03
2018-08-19T07:08:03.153Z,55962.72
2018-08-19T07:10:36.509Z,55984.31
2018-08-19T07:13:14.614Z,55960.66
2018-08-19T07:15:44.653Z,55958.61
2018-08-19T07:18:15.180Z,55974.03
2018-08-19T07:20:45.059Z,55996.65
2018-08-19T07:23:14.443Z,55964.78
2018-08-19T07:25:44.562Z,55967.86
2018-08-19T07:28:15.474Z,55964.78
2018-08-19T07:30:44.685Z,55941.13
2018-08-19T07:33:14.357Z,55938.04
2018-08-19T07:35:43.650Z,55952.44
2018-08-19T07:38:12.756Z,55917.48
2018-08-19T07:40:41.797Z,55953.46
2018-08-19T07:43:11.075Z,55947.30
2018-08-19T07:45:40.207Z,55953.46
2018-08-19T07:48:09.300Z,55942.16
2018-08-19T07:50:38.424Z,55941.13
2018-08-19T07:53:07.611Z,55955.52
2018-08-19T07:55:36.697Z,55938.04
2018-08-19T07:58:06.165Z,55956.55
2018-08-19T08:00:39.175Z,55948.32
2018-08-19T08:03:08.522Z,55941.13
2018-08-19T08:05:42.905Z,55959.63
2018-08-19T08:08:12.092Z,55943.18
2018-08-19T08:10:41.191Z,55926.73
2018-08-19T08:13:12.405Z,55923.65
2018-08-19T08:15:46.655Z,55912.34
2018-08-19T08:18:15.803Z,55952.44
2018-08-19T08:20:44.906Z,55947.30
2018-08-19T08:23:26.265Z,55916.45
2018-08-19T08:25:55.342Z,55913.36
2018-08-19T08:28:24.487Z,55929.82
2018-08-19T08:30:53.661Z,55933.93
2018-08-19T08:33:22.842Z,55914.39
2018-08-19T08:35:58.113Z,55941.13
2018-08-19T08:38:27.246Z,55921.59
2018-08-19T08:40:56.299Z,55925.70
2018-08-19T08:43:25.465Z,55935.98
2018-08-19T08:45:57.365Z,55925.70
2018-08-19T08:48:26.821Z,55920.56
2018-08-19T08:50:56.085Z,55920.56
2018-08-19T08:53:32.039Z,55893.83
2018-08-19T08:56:01.352Z,55891.77
2018-08-19T08:58:30.515Z,55928.79
2018-08-19T09:00:59.817Z,55923.65
2018-08-19T09:03:28.990Z,55909.25
2018-08-19T09:05:58.295Z,55915.42
2018-08-19T09:08:28.068Z,55913.36
2018-08-19T09:10:59.187Z,55896.91
2018-08-19T09:13:28.461Z,55890.75
2018-08-19T09:15:57.656Z,55867.10
2018-08-19T09:18:26.774Z,55825.97
2018-08-19T09:20:55.856Z,55760.17
2018-08-19T09:23:25.056Z,55776.62
2018-08-19T09:25:54.131Z,55772.50
2018-08-19T09:28:23.263Z,55752.97
2018-08-19T09:30:52.376Z,55757.08
2018-08-19T09:33:21.514Z,55779.70
2018-08-19T09:35:50.739Z,55778.67
2018-08-19T09:38:22.040Z,55748.86
2018-08-19T09:40:51.343Z,55742.69
2018-08-19T09:43:20.479Z,55735.49
2018-08-19T09:45:49.663Z,55755.02
2018-08-19T09:48:18.990Z,55743.71
2018-08-19T09:50:48.094Z,55732.41
2018-08-19T09:53:17.169Z,55751.94
2018-08-19T09:55:51.994Z,55744.74
2018-08-19T09:58:22.245Z,55741.66
2018-08-19T10:00:56.694Z,55747.83
2018-08-19T10:03:25.773Z,55731.38
2018-08-19T10:05:54.878Z,55737.55
2018-08-19T10:08:24.715Z,55755.02
2018-08-19T10:10:53.871Z,55742.69
2018-08-19T10:13:22.988Z,55785.87
2018-08-19T10:15:52.309Z,55778.67
2018-08-19T10:18:21.458Z,55804.38
2018-08-19T10:20:50.583Z,55789.98
2018-08-19T10:23:23.121Z,55773.53
2018-08-19T10:25:53.105Z,55783.81
2018-08-19T10:28:28.647Z,55780.73
2018-08-19T10:30:58.096Z,55786.90
2018-08-19T10:33:27.168Z,55775.59
2018-08-19T10:35:59.016Z,55801.29
2018-08-19T10:38:28.278Z,55810.55
2018-08-19T10:41:03.460Z,55829.05
2018-08-19T10:43:32.607Z,55838.31
2018-08-19T10:46:01.703Z,55844.48
2018-08-19T10:48:31.333Z,55801.29
2018-08-19T10:51:03.239Z,55804.38
2018-08-19T10:53:32.465Z,55810.55
2018-08-19T10:56:02.922Z,55843.45
2018-08-19T10:58:32.065Z,55839.34
2018-08-19T11:01:01.166Z,55841.39
2018-08-19T11:03:31.511Z,55836.25
2018-08-19T11:06:00.642Z,55818.77
2018-08-19T11:08:29.727Z,55840.36
2018-08-19T11:11:00.290Z,55828.02
2018-08-19T11:13:29.578Z,55807.46
2018-08-19T11:15:59.242Z,55855.79
2018-08-19T11:18:37.200Z,55876.35
2018-08-19T11:21:12.128Z,55859.90
2018-08-19T11:23:42.583Z,55884.57
2018-08-19T11:26:11.943Z,55898.97
2018-08-19T11:28:46.776Z,55903.08
2018-08-19T11:31:22.643Z,55903.08
2018-08-19T11:33:52.521Z,55905.14
2018-08-19T11:36:24.514Z,55919.54
2018-08-19T11:38:53.744Z,55886.63
2018-08-19T11:41:22.862Z,55885.61
2018-08-19T11:43:52.088Z,55854.76
2018-08-19T11:46:21.158Z,55864.01
2018-08-19T11:48:55.327Z,55886.63
2018-08-19T11:51:41.459Z,55884.57
2018-08-19T11:54:12.278Z,55872.24
2018-08-19T11:56:41.351Z,55874.29
2018-08-19T11:59:10.502Z,55882.52
2018-08-19T12:01:39.704Z,55884.57
2018-08-19T12:04:12.172Z,55884.57
2018-08-19T12:06:41.240Z,55892.80
2018-08-19T12:09:11.072Z,55890.75
2018-08-19T12:11:41.214Z,55886.63
2018-08-19T12:14:12.632Z,55869.15
2018-08-19T12:16:50.456Z,55866.07
2018-08-19T12:19:19.735Z,55880.46
2018-08-19T12:21:54.422Z,55850.64
2018-08-19T12:24:34.715Z,55854.76
2018-08-19T12:27:05.054Z,55875.32
2018-08-19T12:29:35.304Z,55876.35
2018-08-19T12:32:14.935Z,55883.55
2018-08-19T12:34:47.166Z,55878.41
2018-08-19T12:37:17.294Z,55843.45
2018-08-19T12:39:46.605Z,55851.68
2018-08-19T12:42:15.739Z,55861.95
2018-08-19T12:44:53.314Z,55860.93
2018-08-19T12:47:25.599Z,55870.18
2018-08-19T12:49:58.894Z,55866.07
2018-08-19T12:52:29.325Z,55859.90
2018-08-19T12:55:04.085Z,55851.68
2018-08-19T12:57:33.552Z,55841.39
2018-08-19T13:00:18.039Z,55836.25
2018-08-19T13:02:49.139Z,55847.56
2018-08-19T13:05:19.179Z,55852.70
2018-08-19T13:07:48.308Z,55849.62
2018-08-19T13:10:17.869Z,55847.56
2018-08-19T13:12:52.103Z,55820.83
2018-08-19T13:15:21.773Z,55830.08
2018-08-19T13:17:57.538Z,55835.22
2018-08-19T13:20:26.955Z,55831.11
2018-08-19T13:22:59.501Z,55838.31
2018-08-19T13:25:28.824Z,55823.91
2018-08-19T13:27:57.986Z,55803.35
2018-08-19T13:30:27.109Z,55802.32
2018-08-19T13:32:56.229Z,55824.94
2018-08-19T13:35:25.340Z,55804.38
2018-08-19T13:37:54.538Z,55811.57
2018-08-19T13:40:23.679Z,55821.86
2018-08-19T13:42:52.735Z,55800.27
2018-08-19T13:45:22.681Z,55828.02
2018-08-19T13:47:54.154Z,55806.43
2018-08-19T13:50:23.257Z,55792.04
2018-08-19T13:52:59.230Z,55799.24
2018-08-19T13:55:28.417Z,55824.94
2018-08-19T13:57:57.525Z,55813.63
2018-08-19T14:00:30.712Z,55819.80
2018-08-19T14:02:59.878Z,55823.91
2018-08-19T14:05:28.970Z,55829.05
2018-08-19T14:07:58.095Z,55805.41
2018-08-19T14:10:27.248Z,55820.83
2018-08-19T14:12:56.359Z,55829.05
2018-08-19T14:15:25.464Z,55822.88
2018-08-19T14:17:54.555Z,55825.97
2018-08-19T14:20:23.658Z,55835.22
2018-08-19T14:22:52.807Z,55824.94
2018-08-19T14:25:21.961Z,55816.71
2018-08-19T14:27:51.163Z,55815.69
2018-08-19T14:30:20.307Z,55833.17
2018-08-19T14:32:49.485Z,55849.62
2018-08-19T14:35:18.627Z,55833.17
2018-08-19T14:37:47.731Z,55805.41
2018-08-19T14:40:18.524Z,55821.86
2018-08-19T14:42:47.661Z,55822.88
2018-08-19T14:45:16.796Z,55842.42
2018-08-19T14:47:45.963Z,55845.50
2018-08-19T14:50:17.411Z,55844.48
2018-08-19T14:52:46.607Z,55860.93
2018-08-19T14:55:15.920Z,55845.50
2018-08-19T14:57:45.165Z,55829.05
2018-08-19T15:00:16.126Z,55835.22
2018-08-19T15:02:45.405Z,55851.68
2018-08-19T15:05:17.606Z,55828.02
2018-08-19T15:07:47.004Z,55831.11
2018-08-19T15:10:20.379Z,55818.77
2018-08-19T15:12:49.577Z,55835.22
2018-08-19T15:15:18.761Z,55855.79
2018-08-19T15:17:53.019Z,55849.62
2018-08-19T15:20:27.167Z,55835.22
2018-08-19T15:23:19.217Z,55840.36
2018-08-19T15:25:48.393Z,55855.79
2018-08-19T15:28:18.197Z,55847.56
2018-08-19T15:30:47.350Z,55852.70
2018-08-19T15:33:16.940Z,55837.28
2018-08-19T15:35:46.107Z,55844.48
2018-08-19T15:38:15.293Z,55835.22
2018-08-19T15:40:48.030Z,55874.29
2018-08-19T15:43:17.275Z,55847.56
2018-08-19T15:45:46.680Z,55847.56
2018-08-19T15:48:15.817Z,55859.90
2018-08-19T15:50:44.968Z,55848.59
2018-08-19T15:53:14.140Z,55846.53
2018-08-19T15:55:43.296Z,55858.87
2018-08-19T15:58:12.433Z,55860.93
2018-08-19T16:00:42.406Z,55864.01
2018-08-19T16:03:12.665Z,55859.90
2018-08-19T16:05:41.815Z,55859.90
2018-08-19T16:08:11.028Z,55858.87
2018-08-19T16:10:40.160Z,55849.62
2018-08-19T16:13:11.198Z,55874.29
2018-08-19T16:15:40.368Z,55886.63
2018-08-19T16:18:09.642Z,55884.57
2018-08-19T16:20:38.777Z,55872.24
2018-08-19T16:23:07.906Z,55897.94
2018-08-19T16:25:36.999Z,55888.69
2018-08-19T16:28:06.292Z,55861.95
2018-08-19T16:30:35.430Z,55868.12
2018-08-19T16:33:04.626Z,55877.38
2018-08-19T16:35:33.801Z,55864.01
2018-08-19T16:38:02.942Z,55878.41
2018-08-19T16:40:32.073Z,55879.43
2018-08-19T16:43:07.920Z,55878.41
2018-08-19T16:45:37.038Z,55865.04
2018-08-19T16:48:06.577Z,55903.08
2018-08-19T16:50:35.836Z,55866.07
2018-08-19T16:53:04.847Z,55865.04
2018-08-19T16:55:35.057Z,55874.29
2018-08-19T16:58:04.237Z,55872.24
2018-08-19T17:00:33.402Z,55896.91
2018-08-19T17:03:12.712Z,55882.52
2018-08-19T17:05:41.889Z,55903.08
2018-08-19T17:08:11.092Z,55890.75
2018-08-19T17:10:40.195Z,55874.29
2018-08-19T17:13:09.397Z,55902.05
2018-08-19T17:15:38.535Z,55896.91
2018-08-19T17:18:08.315Z,55903.08
2018-08-19T17:20:37.475Z,55896.91
2018-08-19T17:23:06.587Z,55909.25
2018-08-19T17:25:35.669Z,55892.80
2018-08-19T17:28:10.207Z,55892.80
2018-08-19T17:30:39.334Z,55848.59
2018-08-19T17:33:09.619Z,55894.86
2018-08-19T17:35:40.334Z,55898.97
2018-08-19T17:38:09.512Z,55881.49
2018-08-19T17:40:38.654Z,55874.29
2018-08-19T17:43:08.251Z,55872.24
2018-08-19T17:45:37.553Z,55905.14
2018-08-19T17:48:06.674Z,55925.70
2018-08-19T17:50:39.055Z,55912.34
2018-08-19T17:53:08.566Z,55909.25
2018-08-19T17:55:37.728Z,55911.31
2018-08-19T17:58:07.044Z,55893.83
2018-08-19T18:00:36.217Z,55946.27
2018-08-19T18:03:05.378Z,55902.05
2018-08-19T18:05:34.519Z,55907.20
2018-08-19T18:08:03.637Z,55911.31
2018-08-19T18:10:32.943Z,55937.01
2018-08-19T18:13:02.199Z,55927.76
2018-08-19T18:15:31.319Z,55916.45
2018-08-19T18:18:04.750Z,55924.68
2018-08-19T18:20:37.455Z,55942.16
2018-08-19T18:23:15.919Z,55929.82
2018-08-19T18:25:49.267Z,55942.16
2018-08-19T18:28:22.949Z,55915.42
2018-08-19T18:31:08.178Z,55962.72
2018-08-19T18:34:00.234Z,55942.16
2018-08-19T18:36:31.449Z,55912.34
2018-08-19T18:39:00.926Z,55929.82
2018-08-19T18:41:36.759Z,55919.54
2018-08-19T18:44:07.097Z,55926.73
2018-08-19T18:46:36.598Z,55919.54
2018-08-19T18:49:12.855Z,55947.30
2018-08-19T18:51:44.701Z,55963.75
2018-08-19T18:54:21.984Z,55945.24
2018-08-19T18:56:51.102Z,55944.21
2018-08-19T18:59:20.263Z,55937.01
2018-08-19T19:01:49.394Z,55965.80
2018-08-19T19:04:18.566Z,55970.95
2018-08-19T19:06:47.738Z,55956.55
2018-08-19T19:09:16.940Z,55922.62
2018-08-19T19:11:47.242Z,55956.55
2018-08-19T19:14:20.520Z,55981.23
2018-08-19T19:16:51.542Z,55950.38
2018-08-19T19:19:20.860Z,55955.52
2018-08-19T19:21:55.439Z,55950.38
2018-08-19T19:24:30.030Z,55932.90
2018-08-19T19:26:59.204Z,55948.32
2018-08-19T19:29:29.028Z,55973.00
2018-08-19T19:31:59.452Z,55997.68
2018-08-19T19:34:31.298Z,55966.83
2018-08-19T19:37:02.522Z,55962.72
2018-08-19T19:39:31.792Z,55964.78
2018-08-19T19:42:09.375Z,55946.27
2018-08-19T19:44:38.523Z,55990.48
2018-08-19T19:47:09.434Z,55984.31
2018-08-19T19:49:48.435Z,55958.61
2018-08-19T19:52:17.651Z,55973.00
2018-08-19T19:54:46.770Z,55983.28
2018-08-19T19:57:15.859Z,55959.63
2018-08-19T19:59:45.072Z,55969.92
2018-08-19T20:02:19.587Z,55975.06
2018-08-19T20:04:48.747Z,55976.09
2018-08-19T20:07:18.062Z,55993.57
2018-08-19T20:09:47.223Z,55961.69
2018-08-19T20:12:22.558Z,55979.17
2018-08-19T20:14:51.836Z,55985.34
2018-08-19T20:17:21.765Z,55995.62
2018-08-19T20:19:51.324Z,55957.58
2018-08-19T20:22:20.456Z,55944.21
2018-08-19T20:24:49.566Z,55993.57
2018-08-19T20:27:25.277Z,55962.72
2018-08-19T20:29:55.148Z,55979.17
2018-08-19T20:32:24.368Z,55958.61
2018-08-19T20:34:53.539Z,55964.78
2018-08-19T20:37:24.523Z,55991.51
2018-08-19T20:39:54.233Z,55998.71
2018-08-19T20:42:23.453Z,55943.18
2018-08-19T20:44:53.030Z,55964.78
2018-08-19T20:47:22.269Z,55965.80
2018-08-19T20:49:51.601Z,55975.06
2018-08-19T20:52:32.356Z,55966.83
2018-08-19T20:55:01.524Z,55952.44
2018-08-19T20:57:30.652Z,55944.21
2018-08-19T20:59:59.896Z,55969.92
2018-08-19T21:02:29.102Z,55989.45
2018-08-19T21:04:58.260Z,55981.23
2018-08-19T21:07:27.394Z,55964.78
2018-08-19T21:09:56.487Z,55965.80
2018-08-19T21:12:25.615Z,55956.55
2018-08-19T21:14:54.853Z,55963.75
2018-08-19T21:17:23.854Z,55965.80
2018-08-19T21:19:53.014Z,55970.95
2018-08-19T21:22:23.503Z,55964.78
2018-08-19T21:24:52.622Z,55938.04
2018-08-19T21:27:21.780Z,55979.17
2018-08-19T21:29:51.000Z,55989.45
2018-08-19T21:32:20.105Z,55978.14
2018-08-19T21:34:49.234Z,55967.86
2018-08-19T21:37:34.899Z,55955.52
2018-08-19T21:40:05.216Z,55959.63
2018-08-19T21:42:47.222Z,55944.21
2018-08-19T21:45:16.356Z,55989.45
2018-08-19T21:47:45.472Z,55966.83
2018-08-19T21:50:14.633Z,55979.17
2018-08-19T21:53:00.718Z,55973.00
2018-08-19T21:55:32.046Z,55989.45
2018-08-19T21:58:01.840Z,55980.20
2018-08-19T22:00:40.529Z,55940.10
2018-08-19T22:03:18.735Z,55979.17
2018-08-19T22:05:48.800Z,55949.35
2018-08-19T22:08:18.173Z,55961.69
2018-08-19T22:10:48.282Z,55971.97
2018-08-19T22:13:17.420Z,56002.82
2018-08-19T22:15:47.186Z,55986.37
2018-08-19T22:18:17.688Z,56001.79
2018-08-19T22:21:07.925Z,55999.73
2018-08-19T22:23:42.345Z,55990.48
2018-08-19T22:26:12.422Z,55982.25
2018-08-19T22:28:41.978Z,56012.07
2018-08-19T22:31:25.418Z,55960.66
2018-08-19T22:33:56.854Z,55985.34
2018-08-19T22:36:26.136Z,56005.90
2018-08-19T22:38:55.968Z,55999.73
2018-08-19T22:41:27.410Z,55992.54
2018-08-19T22:43:57.109Z,55994.59
2018-08-19T22:46:26.905Z,56001.79
2018-08-19T22:48:56.653Z,55993.57
2018-08-19T22:51:28.626Z,55989.45
2018-08-19T22:53:57.789Z,55949.35
2018-08-19T22:56:26.967Z,55974.03
2018-08-19T22:58:56.105Z,56001.79
2018-08-19T23:01:29.319Z,55977.11
2018-08-19T23:04:02.895Z,55986.37
2018-08-19T23:06:32.717Z,55992.54
2018-08-19T23:09:02.365Z,55969.92
2018-08-19T23:11:37.056Z,55994.59
2018-08-19T23:15:26.064Z,56002.82
2018-08-19T23:17:55.134Z,55980.20
2018-08-19T23:20:24.298Z,55970.95
2018-08-19T23:22:53.424Z,55964.78
2018-08-19T23:25:22.591Z,56000.76
2018-08-19T23:27:51.774Z,55994.59
2018-08-19T23:30:20.967Z,55991.51
2018-08-19T23:32:50.108Z,55976.09
2018-08-19T23:35:19.240Z,55986.37
2018-08-19T23:37:48.346Z,55975.06
2018-08-19T23:40:17.512Z,55964.78
2018-08-19T23:42:46.656Z,55968.89
2018-08-19T23:45:15.784Z,55976.09
2018-08-19T23:47:44.877Z,55990.48
2018-08-19T23:50:14.103Z,55994.59
2018-08-19T23:52:43.555Z,55995.62
2018-08-19T23:55:12.763Z,55974.03
2018-08-19T23:57:41.980Z,55966.83
